sensor_id;sensor_type;location;lat;lon;timestamp;temperature;humidity
30473;DHT22;17263;48.160;11.452;2022-10-16T00:01:13;12.70;99.90
30473;DHT22;17263;48.160;11.452;2022-10-16T00:03:41;12.70;99.90
30473;DHT22;17263;48.160;11.452;2022-10-16T00:06:09;12.70;99.90
30473;DHT22;17263;48.160;11.452;2022-10-16T00:08:36;12.60;99.90
30473;DHT22;17263;48.160;11.452;2022-10-16T00:11:07;12.70;99.90
30473;DHT22;17263;48.160;11.452;2022-10-16T00:13:35;12.70;99.90
30473;DHT22;17263;48.160;11.452;2022-10-16T00:16:02;12.60;99.90
30473;DHT22;17263;48.160;11.452;2022-10-16T00:18:29;12.60;99.90
30473;DHT22;17263;48.160;11.452;2022-10-16T00:21:00;12.60;99.90
30473;DHT22;17263;48.160;11.452;2022-10-16T00:23:27;12.60;99.90
30473;DHT22;17263;48.160;11.452;2022-10-16T00:25:57;12.60;99.90
30473;DHT22;17263;48.160;11.452;2022-10-16T00:28:25;12.60;99.90
30473;DHT22;17263;48.160;11.452;2022-10-16T00:30:52;12.60;99.90
30473;DHT22;17263;48.160;11.452;2022-10-16T00:33:18;12.60;99.90
30473;DHT22;17263;48.160;11.452;2022-10-16T00:35:45;12.60;99.90
30473;DHT22;17263;48.160;11.452;2022-10-16T00:38:11;12.60;99.90
30473;DHT22;17263;48.160;11.452;2022-10-16T00:40:38;12.60;99.90
30473;DHT22;17263;48.160;11.452;2022-10-16T00:43:33;12.50;99.90
30473;DHT22;17263;48.160;11.452;2022-10-16T00:46:00;12.50;99.90
30473;DHT22;17263;48.160;11.452;2022-10-16T00:48:27;12.50;99.90
30473;DHT22;17263;48.160;11.452;2022-10-16T00:50:54;12.50;99.90
30473;DHT22;17263;48.160;11.452;2022-10-16T00:53:20;12.60;99.90
30473;DHT22;17263;48.160;11.452;2022-10-16T00:55:47;12.50;99.90
30473;DHT22;17263;48.160;11.452;2022-10-16T00:58:13;12.60;99.90
30473;DHT22;17263;48.160;11.452;2022-10-16T01:00:39;12.50;99.90
30473;DHT22;17263;48.160;11.452;2022-10-16T01:03:23;12.50;99.90
30473;DHT22;17263;48.160;11.452;2022-10-16T01:14:09;12.50;99.90
30473;DHT22;17263;48.160;11.452;2022-10-16T01:16:48;12.50;99.90
30473;DHT22;17263;48.160;11.452;2022-10-16T01:22:18;12.40;99.90
30473;DHT22;17263;48.160;11.452;2022-10-16T01:24:48;12.40;99.90
30473;DHT22;17263;48.160;11.452;2022-10-16T01:27:22;12.40;99.90
30473;DHT22;17263;48.160;11.452;2022-10-16T01:35:34;12.30;99.90
30473;DHT22;17263;48.160;11.452;2022-10-16T01:38:30;12.40;99.90
30473;DHT22;17263;48.160;11.452;2022-10-16T01:41:01;12.40;99.90
30473;DHT22;17263;48.160;11.452;2022-10-16T01:43:34;12.30;99.90
30473;DHT22;17263;48.160;11.452;2022-10-16T01:46:02;12.40;99.90
30473;DHT22;17263;48.160;11.452;2022-10-16T01:48:29;12.40;99.90
30473;DHT22;17263;48.160;11.452;2022-10-16T01:51:06;12.40;99.90
30473;DHT22;17263;48.160;11.452;2022-10-16T01:53:34;12.40;99.90
30473;DHT22;17263;48.160;11.452;2022-10-16T01:56:02;12.40;99.90
30473;DHT22;17263;48.160;11.452;2022-10-16T01:58:30;12.40;99.90
30473;DHT22;17263;48.160;11.452;2022-10-16T02:01:02;12.50;99.90
30473;DHT22;17263;48.160;11.452;2022-10-16T02:03:28;12.50;99.90
30473;DHT22;17263;48.160;11.452;2022-10-16T02:05:56;12.50;99.90
30473;DHT22;17263;48.160;11.452;2022-10-16T02:08:27;12.50;99.90
30473;DHT22;17263;48.160;11.452;2022-10-16T02:10:55;12.50;99.90
30473;DHT22;17263;48.160;11.452;2022-10-16T02:13:39;12.50;99.90
30473;DHT22;17263;48.160;11.452;2022-10-16T02:16:06;12.50;99.90
30473;DHT22;17263;48.160;11.452;2022-10-16T02:18:33;12.50;99.90
30473;DHT22;17263;48.160;11.452;2022-10-16T02:21:04;12.50;99.90
30473;DHT22;17263;48.160;11.452;2022-10-16T02:23:57;12.50;99.90
30473;DHT22;17263;48.160;11.452;2022-10-16T02:26:34;12.50;99.90
30473;DHT22;17263;48.160;11.452;2022-10-16T02:29:06;12.50;99.90
30473;DHT22;17263;48.160;11.452;2022-10-16T02:31:35;12.50;99.90
30473;DHT22;17263;48.160;11.452;2022-10-16T02:34:05;12.50;99.90
30473;DHT22;17263;48.160;11.452;2022-10-16T02:36:32;12.50;99.90
30473;DHT22;17263;48.160;11.452;2022-10-16T02:38:59;12.60;99.90
30473;DHT22;17263;48.160;11.452;2022-10-16T02:41:27;12.60;99.90
30473;DHT22;17263;48.160;11.452;2022-10-16T02:43:53;12.60;99.90
30473;DHT22;17263;48.160;11.452;2022-10-16T02:46:21;12.60;99.90
30473;DHT22;17263;48.160;11.452;2022-10-16T02:48:47;12.60;99.90
30473;DHT22;17263;48.160;11.452;2022-10-16T02:51:13;12.60;99.90
30473;DHT22;17263;48.160;11.452;2022-10-16T02:53:39;12.60;99.90
30473;DHT22;17263;48.160;11.452;2022-10-16T02:56:05;12.60;99.90
30473;DHT22;17263;48.160;11.452;2022-10-16T02:58:31;12.60;99.90
30473;DHT22;17263;48.160;11.452;2022-10-16T03:00:57;12.60;99.90
30473;DHT22;17263;48.160;11.452;2022-10-16T03:03:23;12.60;99.90
30473;DHT22;17263;48.160;11.452;2022-10-16T03:05:50;12.50;99.90
30473;DHT22;17263;48.160;11.452;2022-10-16T03:08:16;12.50;99.90
30473;DHT22;17263;48.160;11.452;2022-10-16T03:10:43;12.50;99.90
30473;DHT22;17263;48.160;11.452;2022-10-16T03:13:09;12.50;99.90
30473;DHT22;17263;48.160;11.452;2022-10-16T03:15:35;12.40;99.90
30473;DHT22;17263;48.160;11.452;2022-10-16T03:18:01;12.40;99.90
30473;DHT22;17263;48.160;11.452;2022-10-16T03:20:27;12.40;99.90
30473;DHT22;17263;48.160;11.452;2022-10-16T03:22:53;12.40;99.90
30473;DHT22;17263;48.160;11.452;2022-10-16T03:25:19;12.40;99.90
30473;DHT22;17263;48.160;11.452;2022-10-16T03:27:45;12.50;99.90
30473;DHT22;17263;48.160;11.452;2022-10-16T03:30:11;12.50;99.90
30473;DHT22;17263;48.160;11.452;2022-10-16T03:32:37;12.60;99.90
30473;DHT22;17263;48.160;11.452;2022-10-16T03:35:03;12.60;99.90
30473;DHT22;17263;48.160;11.452;2022-10-16T03:37:30;12.70;99.90
30473;DHT22;17263;48.160;11.452;2022-10-16T03:39:56;12.70;99.90
30473;DHT22;17263;48.160;11.452;2022-10-16T03:42:22;12.80;99.90
30473;DHT22;17263;48.160;11.452;2022-10-16T03:44:48;12.80;99.90
30473;DHT22;17263;48.160;11.452;2022-10-16T03:47:14;12.90;99.90
30473;DHT22;17263;48.160;11.452;2022-10-16T03:49:40;12.90;99.90
30473;DHT22;17263;48.160;11.452;2022-10-16T03:52:06;13.00;99.90
30473;DHT22;17263;48.160;11.452;2022-10-16T03:54:32;13.00;99.90
30473;DHT22;17263;48.160;11.452;2022-10-16T03:56:58;13.00;99.90
30473;DHT22;17263;48.160;11.452;2022-10-16T03:59:24;13.10;99.90
30473;DHT22;17263;48.160;11.452;2022-10-16T04:01:50;13.00;99.90
30473;DHT22;17263;48.160;11.452;2022-10-16T04:04:16;13.10;99.90
30473;DHT22;17263;48.160;11.452;2022-10-16T04:06:42;13.10;99.90
30473;DHT22;17263;48.160;11.452;2022-10-16T04:09:08;13.10;99.90
30473;DHT22;17263;48.160;11.452;2022-10-16T04:11:34;13.10;99.90
30473;DHT22;17263;48.160;11.452;2022-10-16T04:14:00;13.10;99.90
30473;DHT22;17263;48.160;11.452;2022-10-16T04:16:26;13.10;99.90
30473;DHT22;17263;48.160;11.452;2022-10-16T04:18:52;13.10;99.90
30473;DHT22;17263;48.160;11.452;2022-10-16T04:21:18;13.10;99.90
30473;DHT22;17263;48.160;11.452;2022-10-16T04:23:44;13.10;99.90
30473;DHT22;17263;48.160;11.452;2022-10-16T04:26:11;13.10;99.90
30473;DHT22;17263;48.160;11.452;2022-10-16T04:28:37;13.20;99.90
30473;DHT22;17263;48.160;11.452;2022-10-16T04:31:04;13.10;99.90
30473;DHT22;17263;48.160;11.452;2022-10-16T04:33:30;13.10;99.90
30473;DHT22;17263;48.160;11.452;2022-10-16T04:35:57;13.10;99.90
30473;DHT22;17263;48.160;11.452;2022-10-16T04:38:24;13.10;99.90
30473;DHT22;17263;48.160;11.452;2022-10-16T04:40:51;13.10;99.90
30473;DHT22;17263;48.160;11.452;2022-10-16T04:43:17;13.10;99.90
30473;DHT22;17263;48.160;11.452;2022-10-16T04:45:43;13.10;99.90
30473;DHT22;17263;48.160;11.452;2022-10-16T04:48:09;13.10;99.90
30473;DHT22;17263;48.160;11.452;2022-10-16T04:50:35;13.10;99.90
30473;DHT22;17263;48.160;11.452;2022-10-16T04:53:01;13.10;99.90
30473;DHT22;17263;48.160;11.452;2022-10-16T04:55:27;13.10;99.90
30473;DHT22;17263;48.160;11.452;2022-10-16T04:57:53;13.10;99.90
30473;DHT22;17263;48.160;11.452;2022-10-16T05:00:19;13.10;99.90
30473;DHT22;17263;48.160;11.452;2022-10-16T05:02:45;13.10;99.90
30473;DHT22;17263;48.160;11.452;2022-10-16T05:05:11;13.10;99.90
30473;DHT22;17263;48.160;11.452;2022-10-16T05:07:37;13.10;99.90
30473;DHT22;17263;48.160;11.452;2022-10-16T05:10:04;13.10;99.90
30473;DHT22;17263;48.160;11.452;2022-10-16T05:12:30;13.10;99.90
30473;DHT22;17263;48.160;11.452;2022-10-16T05:14:56;13.10;99.90
30473;DHT22;17263;48.160;11.452;2022-10-16T05:17:25;13.10;99.90
30473;DHT22;17263;48.160;11.452;2022-10-16T05:19:51;13.10;99.90
30473;DHT22;17263;48.160;11.452;2022-10-16T05:22:17;13.10;99.90
30473;DHT22;17263;48.160;11.452;2022-10-16T05:24:43;13.10;99.90
30473;DHT22;17263;48.160;11.452;2022-10-16T05:27:10;13.10;99.90
30473;DHT22;17263;48.160;11.452;2022-10-16T05:29:37;13.10;99.90
30473;DHT22;17263;48.160;11.452;2022-10-16T05:32:03;13.10;99.90
30473;DHT22;17263;48.160;11.452;2022-10-16T05:34:29;13.00;99.90
30473;DHT22;17263;48.160;11.452;2022-10-16T05:36:55;13.00;99.90
30473;DHT22;17263;48.160;11.452;2022-10-16T05:39:21;13.00;99.90
30473;DHT22;17263;48.160;11.452;2022-10-16T05:41:49;13.00;99.90
30473;DHT22;17263;48.160;11.452;2022-10-16T05:44:15;13.00;99.90
30473;DHT22;17263;48.160;11.452;2022-10-16T05:46:41;13.00;99.90
30473;DHT22;17263;48.160;11.452;2022-10-16T05:49:07;13.00;99.90
30473;DHT22;17263;48.160;11.452;2022-10-16T05:51:33;13.00;99.90
30473;DHT22;17263;48.160;11.452;2022-10-16T05:53:59;13.00;99.90
30473;DHT22;17263;48.160;11.452;2022-10-16T05:56:25;13.00;99.90
30473;DHT22;17263;48.160;11.452;2022-10-16T05:58:51;13.00;99.90
30473;DHT22;17263;48.160;11.452;2022-10-16T06:01:18;13.00;99.90
30473;DHT22;17263;48.160;11.452;2022-10-16T06:03:45;13.00;99.90
30473;DHT22;17263;48.160;11.452;2022-10-16T06:06:13;13.00;99.90
30473;DHT22;17263;48.160;11.452;2022-10-16T06:08:41;12.90;99.90
30473;DHT22;17263;48.160;11.452;2022-10-16T06:11:28;12.90;99.90
30473;DHT22;17263;48.160;11.452;2022-10-16T06:14:13;12.90;99.90
30473;DHT22;17263;48.160;11.452;2022-10-16T06:16:59;13.00;99.90
30473;DHT22;17263;48.160;11.452;2022-10-16T06:19:46;13.00;99.90
30473;DHT22;17263;48.160;11.452;2022-10-16T06:22:32;13.00;99.90
30473;DHT22;17263;48.160;11.452;2022-10-16T06:25:18;13.00;99.90
30473;DHT22;17263;48.160;11.452;2022-10-16T06:28:05;13.10;99.90
30473;DHT22;17263;48.160;11.452;2022-10-16T06:30:59;13.00;99.90
30473;DHT22;17263;48.160;11.452;2022-10-16T06:33:45;13.10;99.90
30473;DHT22;17263;48.160;11.452;2022-10-16T06:36:32;13.00;99.90
30473;DHT22;17263;48.160;11.452;2022-10-16T06:39:19;13.10;99.90
30473;DHT22;17263;48.160;11.452;2022-10-16T06:42:05;13.00;99.90
30473;DHT22;17263;48.160;11.452;2022-10-16T06:44:51;13.00;99.90
30473;DHT22;17263;48.160;11.452;2022-10-16T06:47:38;13.00;99.90
30473;DHT22;17263;48.160;11.452;2022-10-16T06:50:24;13.10;99.90
30473;DHT22;17263;48.160;11.452;2022-10-16T06:53:10;13.10;99.90
30473;DHT22;17263;48.160;11.452;2022-10-16T06:55:57;13.10;99.90
30473;DHT22;17263;48.160;11.452;2022-10-16T06:58:44;13.10;99.90
30473;DHT22;17263;48.160;11.452;2022-10-16T07:01:31;13.10;99.90
30473;DHT22;17263;48.160;11.452;2022-10-16T07:04:17;13.20;99.90
30473;DHT22;17263;48.160;11.452;2022-10-16T07:07:04;13.20;99.90
30473;DHT22;17263;48.160;11.452;2022-10-16T07:09:50;13.40;99.90
30473;DHT22;17263;48.160;11.452;2022-10-16T07:12:36;13.80;99.90
30473;DHT22;17263;48.160;11.452;2022-10-16T07:15:23;14.20;99.90
30473;DHT22;17263;48.160;11.452;2022-10-16T07:18:10;14.50;99.90
30473;DHT22;17263;48.160;11.452;2022-10-16T07:21:03;14.50;99.90
30473;DHT22;17263;48.160;11.452;2022-10-16T07:23:51;14.50;99.90
30473;DHT22;17263;48.160;11.452;2022-10-16T07:26:37;14.40;99.90
30473;DHT22;17263;48.160;11.452;2022-10-16T07:29:25;14.50;99.90
30473;DHT22;17263;48.160;11.452;2022-10-16T07:32:11;14.50;99.90
30473;DHT22;17263;48.160;11.452;2022-10-16T07:34:57;14.60;99.90
30473;DHT22;17263;48.160;11.452;2022-10-16T07:37:45;14.70;99.90
30473;DHT22;17263;48.160;11.452;2022-10-16T07:40:31;14.70;99.90
30473;DHT22;17263;48.160;11.452;2022-10-16T07:43:18;14.80;99.90
30473;DHT22;17263;48.160;11.452;2022-10-16T07:46:04;14.70;99.90
30473;DHT22;17263;48.160;11.452;2022-10-16T07:48:51;14.70;99.90
30473;DHT22;17263;48.160;11.452;2022-10-16T07:51:37;14.70;99.90
30473;DHT22;17263;48.160;11.452;2022-10-16T07:54:26;14.70;99.90
30473;DHT22;17263;48.160;11.452;2022-10-16T07:57:13;14.80;99.90
30473;DHT22;17263;48.160;11.452;2022-10-16T08:00:05;15.00;99.90
30473;DHT22;17263;48.160;11.452;2022-10-16T08:02:52;15.10;99.90
30473;DHT22;17263;48.160;11.452;2022-10-16T08:05:38;15.30;99.90
30473;DHT22;17263;48.160;11.452;2022-10-16T08:08:24;15.60;99.90
30473;DHT22;17263;48.160;11.452;2022-10-16T08:11:11;15.90;99.90
30473;DHT22;17263;48.160;11.452;2022-10-16T08:13:57;16.20;99.90
30473;DHT22;17263;48.160;11.452;2022-10-16T08:16:43;16.90;99.90
30473;DHT22;17263;48.160;11.452;2022-10-16T08:19:30;17.80;99.90
30473;DHT22;17263;48.160;11.452;2022-10-16T08:22:17;18.60;99.90
30473;DHT22;17263;48.160;11.452;2022-10-16T08:25:04;19.00;99.90
30473;DHT22;17263;48.160;11.452;2022-10-16T08:27:50;19.20;99.90
30473;DHT22;17263;48.160;11.452;2022-10-16T08:30:37;19.40;99.90
30473;DHT22;17263;48.160;11.452;2022-10-16T08:33:23;19.50;99.90
30473;DHT22;17263;48.160;11.452;2022-10-16T08:36:11;19.60;99.90
30473;DHT22;17263;48.160;11.452;2022-10-16T08:38:57;19.70;99.90
30473;DHT22;17263;48.160;11.452;2022-10-16T08:42:24;20.10;99.90
30473;DHT22;17263;48.160;11.452;2022-10-16T08:48:29;20.60;99.90
30473;DHT22;17263;48.160;11.452;2022-10-16T08:51:24;20.60;99.90
30473;DHT22;17263;48.160;11.452;2022-10-16T08:57:21;20.30;99.90
30473;DHT22;17263;48.160;11.452;2022-10-16T09:00:17;20.10;99.90
30473;DHT22;17263;48.160;11.452;2022-10-16T09:03:07;20.00;99.90
30473;DHT22;17263;48.160;11.452;2022-10-16T09:18:04;20.10;99.90
30473;DHT22;17263;48.160;11.452;2022-10-16T09:21:09;20.20;99.90
30473;DHT22;17263;48.160;11.452;2022-10-16T09:24:12;20.30;99.90
30473;DHT22;17263;48.160;11.452;2022-10-16T09:26:59;20.30;99.90
30473;DHT22;17263;48.160;11.452;2022-10-16T09:29:45;20.30;99.90
30473;DHT22;17263;48.160;11.452;2022-10-16T09:32:32;20.30;99.90
30473;DHT22;17263;48.160;11.452;2022-10-16T09:36:08;20.30;99.90
30473;DHT22;17263;48.160;11.452;2022-10-16T09:38:29;20.30;99.90
30473;DHT22;17263;48.160;11.452;2022-10-16T09:41:21;20.30;99.90
30473;DHT22;17263;48.160;11.452;2022-10-16T09:47:17;20.20;99.90
30473;DHT22;17263;48.160;11.452;2022-10-16T09:50:20;20.20;99.90
30473;DHT22;17263;48.160;11.452;2022-10-16T09:53:12;20.30;99.90
30473;DHT22;17263;48.160;11.452;2022-10-16T09:55:59;20.20;99.90
30473;DHT22;17263;48.160;11.452;2022-10-16T09:58:53;20.20;99.90
30473;DHT22;17263;48.160;11.452;2022-10-16T10:01:52;20.20;99.90
30473;DHT22;17263;48.160;11.452;2022-10-16T10:04:43;20.10;99.90
30473;DHT22;17263;48.160;11.452;2022-10-16T10:07:37;20.20;99.90
30473;DHT22;17263;48.160;11.452;2022-10-16T10:10:28;20.20;99.90
30473;DHT22;17263;48.160;11.452;2022-10-16T10:13:25;20.30;99.90
30473;DHT22;17263;48.160;11.452;2022-10-16T10:16:23;20.30;99.90
30473;DHT22;17263;48.160;11.452;2022-10-16T10:19:23;20.30;99.90
30473;DHT22;17263;48.160;11.452;2022-10-16T10:22:50;20.30;99.90
30473;DHT22;17263;48.160;11.452;2022-10-16T10:25:49;20.40;99.90
30473;DHT22;17263;48.160;11.452;2022-10-16T10:32:56;20.40;99.90
30473;DHT22;17263;48.160;11.452;2022-10-16T10:36:09;20.40;99.90
30473;DHT22;17263;48.160;11.452;2022-10-16T10:39:12;20.40;99.90
30473;DHT22;17263;48.160;11.452;2022-10-16T10:45:16;20.40;99.90
30473;DHT22;17263;48.160;11.452;2022-10-16T10:48:19;20.50;99.90
30473;DHT22;17263;48.160;11.452;2022-10-16T10:51:17;20.60;99.90
30473;DHT22;17263;48.160;11.452;2022-10-16T10:57:27;20.80;99.90
30473;DHT22;17263;48.160;11.452;2022-10-16T11:06:59;20.90;99.90
30473;DHT22;17263;48.160;11.452;2022-10-16T11:09:53;21.00;99.90
30473;DHT22;17263;48.160;11.452;2022-10-16T11:12:48;21.00;99.90
30473;DHT22;17263;48.160;11.452;2022-10-16T11:15:40;21.10;99.90
30473;DHT22;17263;48.160;11.452;2022-10-16T11:18:45;21.10;99.90
30473;DHT22;17263;48.160;11.452;2022-10-16T11:21:43;21.20;99.90
30473;DHT22;17263;48.160;11.452;2022-10-16T11:31:00;21.40;99.90
30473;DHT22;17263;48.160;11.452;2022-10-16T11:33:59;21.30;99.90
30473;DHT22;17263;48.160;11.452;2022-10-16T11:37:11;21.20;99.90
30473;DHT22;17263;48.160;11.452;2022-10-16T11:40:32;21.20;99.90
30473;DHT22;17263;48.160;11.452;2022-10-16T11:43:34;21.10;99.90
30473;DHT22;17263;48.160;11.452;2022-10-16T11:46:24;21.00;99.90
30473;DHT22;17263;48.160;11.452;2022-10-16T11:49:18;21.00;99.90
30473;DHT22;17263;48.160;11.452;2022-10-16T11:55:17;21.00;99.90
30473;DHT22;17263;48.160;11.452;2022-10-16T12:01:38;21.00;99.90
30473;DHT22;17263;48.160;11.452;2022-10-16T12:04:34;21.00;99.90
30473;DHT22;17263;48.160;11.452;2022-10-16T12:07:36;21.00;99.90
30473;DHT22;17263;48.160;11.452;2022-10-16T12:10:28;21.10;99.90
30473;DHT22;17263;48.160;11.452;2022-10-16T12:13:34;21.20;99.90
30473;DHT22;17263;48.160;11.452;2022-10-16T12:16:22;21.30;99.90
30473;DHT22;17263;48.160;11.452;2022-10-16T12:19:15;21.40;99.90
30473;DHT22;17263;48.160;11.452;2022-10-16T12:22:02;21.50;99.90
30473;DHT22;17263;48.160;11.452;2022-10-16T12:24:51;21.60;99.90
30473;DHT22;17263;48.160;11.452;2022-10-16T12:27:38;21.50;99.90
30473;DHT22;17263;48.160;11.452;2022-10-16T12:30:26;21.50;99.90
30473;DHT22;17263;48.160;11.452;2022-10-16T12:33:29;21.50;99.90
30473;DHT22;17263;48.160;11.452;2022-10-16T12:36:30;21.50;99.90
30473;DHT22;17263;48.160;11.452;2022-10-16T12:39:24;21.50;99.90
30473;DHT22;17263;48.160;11.452;2022-10-16T12:45:30;21.50;99.90
30473;DHT22;17263;48.160;11.452;2022-10-16T12:48:21;21.40;99.90
30473;DHT22;17263;48.160;11.452;2022-10-16T12:51:19;21.40;99.90
30473;DHT22;17263;48.160;11.452;2022-10-16T12:54:44;21.50;99.90
30473;DHT22;17263;48.160;11.452;2022-10-16T12:57:45;21.50;99.90
30473;DHT22;17263;48.160;11.452;2022-10-16T13:06:59;21.60;99.90
30473;DHT22;17263;48.160;11.452;2022-10-16T13:10:19;21.60;99.90
30473;DHT22;17263;48.160;11.452;2022-10-16T13:22:33;21.70;99.90
30473;DHT22;17263;48.160;11.452;2022-10-16T13:25:39;21.70;99.90
30473;DHT22;17263;48.160;11.452;2022-10-16T13:28:32;21.70;99.90
30473;DHT22;17263;48.160;11.452;2022-10-16T13:31:22;21.70;99.90
30473;DHT22;17263;48.160;11.452;2022-10-16T13:34:21;21.70;99.90
30473;DHT22;17263;48.160;11.452;2022-10-16T13:37:17;21.70;99.90
30473;DHT22;17263;48.160;11.452;2022-10-16T13:40:24;21.60;99.90
30473;DHT22;17263;48.160;11.452;2022-10-16T13:43:11;21.60;99.90
30473;DHT22;17263;48.160;11.452;2022-10-16T13:46:03;21.60;99.90
30473;DHT22;17263;48.160;11.452;2022-10-16T13:49:03;21.60;99.90
30473;DHT22;17263;48.160;11.452;2022-10-16T13:51:56;21.50;99.90
30473;DHT22;17263;48.160;11.452;2022-10-16T13:54:42;21.50;99.90
30473;DHT22;17263;48.160;11.452;2022-10-16T13:57:28;21.60;99.90
30473;DHT22;17263;48.160;11.452;2022-10-16T14:00:24;21.50;99.90
30473;DHT22;17263;48.160;11.452;2022-10-16T14:03:15;21.50;99.90
30473;DHT22;17263;48.160;11.452;2022-10-16T14:06:04;21.50;99.90
30473;DHT22;17263;48.160;11.452;2022-10-16T14:09:01;21.50;99.90
30473;DHT22;17263;48.160;11.452;2022-10-16T14:11:50;21.40;99.90
30473;DHT22;17263;48.160;11.452;2022-10-16T14:14:46;21.40;99.90
30473;DHT22;17263;48.160;11.452;2022-10-16T14:17:35;21.30;99.90
30473;DHT22;17263;48.160;11.452;2022-10-16T14:20:26;21.30;99.90
30473;DHT22;17263;48.160;11.452;2022-10-16T14:23:36;21.30;99.90
30473;DHT22;17263;48.160;11.452;2022-10-16T14:26:26;21.30;99.90
30473;DHT22;17263;48.160;11.452;2022-10-16T14:29:13;21.30;99.90
30473;DHT22;17263;48.160;11.452;2022-10-16T14:31:39;21.30;99.90
30473;DHT22;17263;48.160;11.452;2022-10-16T14:34:36;21.30;99.90
30473;DHT22;17263;48.160;11.452;2022-10-16T14:39:50;21.30;99.90
30473;DHT22;17263;48.160;11.452;2022-10-16T14:42:18;21.20;99.90
30473;DHT22;17263;48.160;11.452;2022-10-16T14:44:46;21.20;99.90
30473;DHT22;17263;48.160;11.452;2022-10-16T14:47:15;21.10;99.90
30473;DHT22;17263;48.160;11.452;2022-10-16T14:49:43;21.10;99.90
30473;DHT22;17263;48.160;11.452;2022-10-16T14:52:11;21.00;99.90
30473;DHT22;17263;48.160;11.452;2022-10-16T14:54:37;20.90;99.90
30473;DHT22;17263;48.160;11.452;2022-10-16T14:57:04;20.90;99.90
30473;DHT22;17263;48.160;11.452;2022-10-16T14:59:41;20.80;99.90
30473;DHT22;17263;48.160;11.452;2022-10-16T15:02:31;20.70;99.90
30473;DHT22;17263;48.160;11.452;2022-10-16T15:05:10;20.70;99.90
30473;DHT22;17263;48.160;11.452;2022-10-16T15:07:37;20.50;99.90
30473;DHT22;17263;48.160;11.452;2022-10-16T15:10:03;20.50;99.90
30473;DHT22;17263;48.160;11.452;2022-10-16T15:12:29;20.40;99.90
30473;DHT22;17263;48.160;11.452;2022-10-16T15:14:55;20.40;99.90
30473;DHT22;17263;48.160;11.452;2022-10-16T15:17:21;20.30;99.90
30473;DHT22;17263;48.160;11.452;2022-10-16T15:19:47;20.40;99.90
30473;DHT22;17263;48.160;11.452;2022-10-16T15:22:13;20.30;99.90
30473;DHT22;17263;48.160;11.452;2022-10-16T15:24:40;20.20;99.90
30473;DHT22;17263;48.160;11.452;2022-10-16T15:27:06;20.20;99.90
30473;DHT22;17263;48.160;11.452;2022-10-16T15:29:32;20.10;99.90
30473;DHT22;17263;48.160;11.452;2022-10-16T15:31:58;20.10;99.90
30473;DHT22;17263;48.160;11.452;2022-10-16T15:34:24;20.00;99.90
30473;DHT22;17263;48.160;11.452;2022-10-16T15:36:50;19.90;99.90
30473;DHT22;17263;48.160;11.452;2022-10-16T15:39:18;19.90;99.90
30473;DHT22;17263;48.160;11.452;2022-10-16T15:41:45;19.90;99.90
30473;DHT22;17263;48.160;11.452;2022-10-16T15:44:20;19.90;99.90
30473;DHT22;17263;48.160;11.452;2022-10-16T15:46:48;19.90;99.90
30473;DHT22;17263;48.160;11.452;2022-10-16T15:49:14;19.80;99.90
30473;DHT22;17263;48.160;11.452;2022-10-16T15:51:41;19.70;99.90
30473;DHT22;17263;48.160;11.452;2022-10-16T15:54:08;19.70;99.90
30473;DHT22;17263;48.160;11.452;2022-10-16T15:56:34;19.70;99.90
30473;DHT22;17263;48.160;11.452;2022-10-16T15:59:03;19.60;99.90
30473;DHT22;17263;48.160;11.452;2022-10-16T16:01:33;19.40;99.90
30473;DHT22;17263;48.160;11.452;2022-10-16T16:03:59;19.30;99.90
30473;DHT22;17263;48.160;11.452;2022-10-16T16:06:25;19.20;99.90
30473;DHT22;17263;48.160;11.452;2022-10-16T16:08:51;19.20;99.90
30473;DHT22;17263;48.160;11.452;2022-10-16T16:11:18;19.00;99.90
30473;DHT22;17263;48.160;11.452;2022-10-16T16:13:44;18.90;99.90
30473;DHT22;17263;48.160;11.452;2022-10-16T16:16:13;18.80;99.90
30473;DHT22;17263;48.160;11.452;2022-10-16T16:18:40;18.80;99.90
30473;DHT22;17263;48.160;11.452;2022-10-16T16:21:07;18.70;99.90
30473;DHT22;17263;48.160;11.452;2022-10-16T16:23:33;18.60;99.90
30473;DHT22;17263;48.160;11.452;2022-10-16T16:26:24;18.60;99.90
30473;DHT22;17263;48.160;11.452;2022-10-16T16:28:54;18.50;99.90
30473;DHT22;17263;48.160;11.452;2022-10-16T16:31:24;18.40;99.90
30473;DHT22;17263;48.160;11.452;2022-10-16T16:33:50;18.30;99.90
30473;DHT22;17263;48.160;11.452;2022-10-16T16:36:17;18.20;99.90
30473;DHT22;17263;48.160;11.452;2022-10-16T16:38:46;18.10;99.90
30473;DHT22;17263;48.160;11.452;2022-10-16T16:41:21;18.00;99.90
30473;DHT22;17263;48.160;11.452;2022-10-16T16:43:47;17.90;99.90
30473;DHT22;17263;48.160;11.452;2022-10-16T16:46:15;17.80;99.90
30473;DHT22;17263;48.160;11.452;2022-10-16T16:48:41;17.70;99.90
30473;DHT22;17263;48.160;11.452;2022-10-16T16:51:10;17.60;99.90
30473;DHT22;17263;48.160;11.452;2022-10-16T16:53:42;17.60;99.90
30473;DHT22;17263;48.160;11.452;2022-10-16T16:56:08;17.50;99.90
30473;DHT22;17263;48.160;11.452;2022-10-16T16:58:34;17.40;99.90
30473;DHT22;17263;48.160;11.452;2022-10-16T17:01:01;17.30;99.90
30473;DHT22;17263;48.160;11.452;2022-10-16T17:03:28;17.20;99.90
30473;DHT22;17263;48.160;11.452;2022-10-16T17:06:00;17.10;99.90
30473;DHT22;17263;48.160;11.452;2022-10-16T17:08:27;17.10;99.90
30473;DHT22;17263;48.160;11.452;2022-10-16T17:10:54;17.00;99.90
30473;DHT22;17263;48.160;11.452;2022-10-16T17:13:22;17.00;99.90
30473;DHT22;17263;48.160;11.452;2022-10-16T17:15:49;16.90;99.90
30473;DHT22;17263;48.160;11.452;2022-10-16T17:18:16;16.80;99.90
30473;DHT22;17263;48.160;11.452;2022-10-16T17:20:43;16.80;99.90
30473;DHT22;17263;48.160;11.452;2022-10-16T17:23:10;16.70;99.90
30473;DHT22;17263;48.160;11.452;2022-10-16T17:25:37;16.60;99.90
30473;DHT22;17263;48.160;11.452;2022-10-16T17:28:04;16.60;99.90
30473;DHT22;17263;48.160;11.452;2022-10-16T17:30:30;16.60;99.90
30473;DHT22;17263;48.160;11.452;2022-10-16T17:32:56;16.50;99.90
30473;DHT22;17263;48.160;11.452;2022-10-16T17:35:22;16.50;99.90
30473;DHT22;17263;48.160;11.452;2022-10-16T17:37:51;16.40;99.90
30473;DHT22;17263;48.160;11.452;2022-10-16T17:40:17;16.40;99.90
30473;DHT22;17263;48.160;11.452;2022-10-16T17:42:43;16.30;99.90
30473;DHT22;17263;48.160;11.452;2022-10-16T17:45:09;16.30;99.90
30473;DHT22;17263;48.160;11.452;2022-10-16T17:47:35;16.30;99.90
30473;DHT22;17263;48.160;11.452;2022-10-16T17:50:02;16.20;99.90
30473;DHT22;17263;48.160;11.452;2022-10-16T17:52:28;16.20;99.90